sensor_id;sensor_type;location;lat;lon;timestamp;P1;durP1;ratioP1;P2;durP2;ratioP2
3815;SDS011;1923;48.154;11.536;2023-04-03T00:00:50;6.97;;;4.10;;
3815;SDS011;1923;48.154;11.536;2023-04-03T00:03:19;7.40;;;4.27;;
3815;SDS011;1923;48.154;11.536;2023-04-03T00:05:49;6.07;;;4.70;;
3815;SDS011;1923;48.154;11.536;2023-04-03T00:08:17;8.00;;;5.60;;
3815;SDS011;1923;48.154;11.536;2023-04-03T00:10:45;8.80;;;4.33;;
3815;SDS011;1923;48.154;11.536;2023-04-03T00:13:13;7.00;;;4.53;;
3815;SDS011;1923;48.154;11.536;2023-04-03T00:15:44;5.30;;;4.07;;
3815;SDS011;1923;48.154;11.536;2023-04-03T00:18:12;5.80;;;4.03;;
3815;SDS011;1923;48.154;11.536;2023-04-03T00:20:40;5.30;;;4.00;;
3815;SDS011;1923;48.154;11.536;2023-04-03T00:23:09;4.73;;;3.67;;
3815;SDS011;1923;48.154;11.536;2023-04-03T00:25:38;9.00;;;5.20;;
3815;SDS011;1923;48.154;11.536;2023-04-03T00:28:06;8.37;;;4.70;;
3815;SDS011;1923;48.154;11.536;2023-04-03T00:30:34;5.90;;;4.00;;
3815;SDS011;1923;48.154;11.536;2023-04-03T00:33:03;9.27;;;4.57;;
3815;SDS011;1923;48.154;11.536;2023-04-03T00:35:31;7.37;;;4.50;;
3815;SDS011;1923;48.154;11.536;2023-04-03T00:38:01;7.03;;;4.77;;
3815;SDS011;1923;48.154;11.536;2023-04-03T00:40:32;7.70;;;4.67;;
3815;SDS011;1923;48.154;11.536;2023-04-03T00:43:10;4.80;;;3.40;;
3815;SDS011;1923;48.154;11.536;2023-04-03T00:45:41;6.90;;;4.60;;
3815;SDS011;1923;48.154;11.536;2023-04-03T00:48:11;6.83;;;4.30;;
3815;SDS011;1923;48.154;11.536;2023-04-03T00:50:42;7.07;;;4.43;;
3815;SDS011;1923;48.154;11.536;2023-04-03T00:53:12;9.23;;;4.90;;
3815;SDS011;1923;48.154;11.536;2023-04-03T00:55:45;5.30;;;3.70;;
3815;SDS011;1923;48.154;11.536;2023-04-03T00:58:15;6.97;;;4.00;;
3815;SDS011;1923;48.154;11.536;2023-04-03T01:00:48;8.30;;;4.80;;
3815;SDS011;1923;48.154;11.536;2023-04-03T01:03:24;7.07;;;4.43;;
3815;SDS011;1923;48.154;11.536;2023-04-03T01:05:52;5.77;;;4.03;;
3815;SDS011;1923;48.154;11.536;2023-04-03T01:08:20;10.07;;;5.50;;
3815;SDS011;1923;48.154;11.536;2023-04-03T01:10:49;5.67;;;4.90;;
3815;SDS011;1923;48.154;11.536;2023-04-03T01:13:19;6.07;;;3.90;;
3815;SDS011;1923;48.154;11.536;2023-04-03T01:15:49;5.07;;;3.50;;
3815;SDS011;1923;48.154;11.536;2023-04-03T01:18:18;5.23;;;4.00;;
3815;SDS011;1923;48.154;11.536;2023-04-03T01:21:05;7.05;;;3.50;;
3815;SDS011;1923;48.154;11.536;2023-04-03T09:57:57;4.73;;;3.37;;
3815;SDS011;1923;48.154;11.536;2023-04-03T10:00:28;3.37;;;3.00;;
3815;SDS011;1923;48.154;11.536;2023-04-03T10:03:00;4.13;;;3.63;;
3815;SDS011;1923;48.154;11.536;2023-04-03T10:05:31;3.53;;;2.90;;
3815;SDS011;1923;48.154;11.536;2023-04-03T10:08:14;3.50;;;2.70;;
3815;SDS011;1923;48.154;11.536;2023-04-03T10:11:04;3.60;;;3.07;;
3815;SDS011;1923;48.154;11.536;2023-04-03T10:13:37;4.03;;;3.27;;
3815;SDS011;1923;48.154;11.536;2023-04-03T10:16:19;3.70;;;3.10;;
3815;SDS011;1923;48.154;11.536;2023-04-03T10:18:53;4.55;;;3.38;;
3815;SDS011;1923;48.154;11.536;2023-04-03T10:21:33;2.97;;;2.70;;
3815;SDS011;1923;48.154;11.536;2023-04-03T10:24:10;4.00;;;3.30;;
3815;SDS011;1923;48.154;11.536;2023-04-03T10:26:44;3.57;;;3.10;;
3815;SDS011;1923;48.154;11.536;2023-04-03T10:29:21;4.10;;;2.83;;
3815;SDS011;1923;48.154;11.536;2023-04-03T10:31:59;7.45;;;3.20;;
3815;SDS011;1923;48.154;11.536;2023-04-03T10:34:33;4.57;;;3.13;;
3815;SDS011;1923;48.154;11.536;2023-04-03T10:37:06;4.00;;;3.00;;
3815;SDS011;1923;48.154;11.536;2023-04-03T10:39:46;3.97;;;3.17;;
3815;SDS011;1923;48.154;11.536;2023-04-03T10:42:23;6.33;;;3.63;;
3815;SDS011;1923;48.154;11.536;2023-04-03T10:45:06;5.07;;;3.40;;
3815;SDS011;1923;48.154;11.536;2023-04-03T10:47:46;3.17;;;2.87;;
3815;SDS011;1923;48.154;11.536;2023-04-03T10:50:27;3.50;;;2.90;;
3815;SDS011;1923;48.154;11.536;2023-04-03T10:53:04;2.80;;;2.30;;
3815;SDS011;1923;48.154;11.536;2023-04-03T10:55:38;3.00;;;2.40;;
3815;SDS011;1923;48.154;11.536;2023-04-03T10:58:12;2.70;;;2.47;;
3815;SDS011;1923;48.154;11.536;2023-04-03T11:00:50;3.17;;;2.40;;
3815;SDS011;1923;48.154;11.536;2023-04-03T11:03:24;3.63;;;2.40;;
3815;SDS011;1923;48.154;11.536;2023-04-03T11:05:59;3.47;;;2.90;;
3815;SDS011;1923;48.154;11.536;2023-04-03T11:08:32;4.23;;;3.00;;
3815;SDS011;1923;48.154;11.536;2023-04-03T11:11:05;3.63;;;2.40;;
3815;SDS011;1923;48.154;11.536;2023-04-03T11:13:37;3.27;;;2.60;;
3815;SDS011;1923;48.154;11.536;2023-04-03T11:16:12;3.60;;;2.33;;
3815;SDS011;1923;48.154;11.536;2023-04-03T11:18:46;4.23;;;2.37;;
3815;SDS011;1923;48.154;11.536;2023-04-03T11:21:20;3.73;;;3.30;;
3815;SDS011;1923;48.154;11.536;2023-04-03T11:23:53;2.07;;;1.83;;
3815;SDS011;1923;48.154;11.536;2023-04-03T11:26:26;3.53;;;2.57;;
3815;SDS011;1923;48.154;11.536;2023-04-03T11:28:59;2.70;;;2.13;;
3815;SDS011;1923;48.154;11.536;2023-04-03T11:31:38;2.63;;;2.00;;
3815;SDS011;1923;48.154;11.536;2023-04-03T11:34:21;3.50;;;2.53;;
3815;SDS011;1923;48.154;11.536;2023-04-03T11:36:58;2.20;;;1.90;;
3815;SDS011;1923;48.154;11.536;2023-04-03T11:39:28;2.43;;;2.23;;
3815;SDS011;1923;48.154;11.536;2023-04-03T11:44:44;2.10;;;1.90;;
3815;SDS011;1923;48.154;11.536;2023-04-03T11:47:14;2.80;;;1.80;;
3815;SDS011;1923;48.154;11.536;2023-04-03T11:50:25;2.83;;;1.80;;
3815;SDS011;1923;48.154;11.536;2023-04-03T11:53:03;3.97;;;2.00;;
3815;SDS011;1923;48.154;11.536;2023-04-03T11:55:57;2.37;;;2.17;;
3815;SDS011;1923;48.154;11.536;2023-04-03T11:58:27;2.20;;;2.00;;
3815;SDS011;1923;48.154;11.536;2023-04-03T12:01:00;2.10;;;1.67;;
3815;SDS011;1923;48.154;11.536;2023-04-03T12:03:34;1.90;;;1.80;;
3815;SDS011;1923;48.154;11.536;2023-04-03T12:12:31;1.80;;;1.50;;
3815;SDS011;1923;48.154;11.536;2023-04-03T12:21:07;2.20;;;1.83;;
3815;SDS011;1923;48.154;11.536;2023-04-03T12:23:35;2.03;;;1.60;;
3815;SDS011;1923;48.154;11.536;2023-04-03T12:26:24;1.57;;;1.30;;
3815;SDS011;1923;48.154;11.536;2023-04-03T12:29:14;1.37;;;1.27;;
3815;SDS011;1923;48.154;11.536;2023-04-03T12:31:48;1.73;;;1.30;;
3815;SDS011;1923;48.154;11.536;2023-04-03T12:34:37;2.73;;;1.40;;
3815;SDS011;1923;48.154;11.536;2023-04-03T12:37:20;2.43;;;1.80;;
3815;SDS011;1923;48.154;11.536;2023-04-03T12:40:06;1.37;;;1.23;;
3815;SDS011;1923;48.154;11.536;2023-04-03T12:42:55;1.40;;;1.30;;
3815;SDS011;1923;48.154;11.536;2023-04-03T12:45:39;1.43;;;1.33;;
3815;SDS011;1923;48.154;11.536;2023-04-03T12:48:12;2.07;;;1.50;;
3815;SDS011;1923;48.154;11.536;2023-04-03T12:50:45;1.30;;;1.17;;
3815;SDS011;1923;48.154;11.536;2023-04-03T12:53:16;2.47;;;1.17;;
3815;SDS011;1923;48.154;11.536;2023-04-03T12:55:46;0.93;;;0.93;;
3815;SDS011;1923;48.154;11.536;2023-04-03T12:58:15;1.67;;;1.57;;
3815;SDS011;1923;48.154;11.536;2023-04-03T13:00:58;1.87;;;1.23;;
3815;SDS011;1923;48.154;11.536;2023-04-03T13:03:28;1.23;;;1.20;;
3815;SDS011;1923;48.154;11.536;2023-04-03T13:06:02;1.37;;;1.27;;
3815;SDS011;1923;48.154;11.536;2023-04-03T13:08:31;1.37;;;1.27;;
3815;SDS011;1923;48.154;11.536;2023-04-03T13:11:00;1.40;;;1.30;;
3815;SDS011;1923;48.154;11.536;2023-04-03T13:13:31;1.83;;;1.60;;
3815;SDS011;1923;48.154;11.536;2023-04-03T13:15:59;1.40;;;1.30;;
3815;SDS011;1923;48.154;11.536;2023-04-03T13:18:36;1.57;;;1.47;;
3815;SDS011;1923;48.154;11.536;2023-04-03T13:21:07;2.10;;;1.67;;
3815;SDS011;1923;48.154;11.536;2023-04-03T13:23:42;1.83;;;1.40;;
3815;SDS011;1923;48.154;11.536;2023-04-03T13:26:13;1.53;;;1.43;;
3815;SDS011;1923;48.154;11.536;2023-04-03T13:28:43;1.47;;;1.30;;
3815;SDS011;1923;48.154;11.536;2023-04-03T13:31:18;2.30;;;1.23;;
3815;SDS011;1923;48.154;11.536;2023-04-03T13:33:52;1.57;;;1.30;;
3815;SDS011;1923;48.154;11.536;2023-04-03T13:36:24;1.27;;;1.17;;
3815;SDS011;1923;48.154;11.536;2023-04-03T13:39:01;1.60;;;1.50;;
3815;SDS011;1923;48.154;11.536;2023-04-03T13:41:32;1.30;;;1.10;;
3815;SDS011;1923;48.154;11.536;2023-04-03T13:47:13;1.00;;;1.00;;
3815;SDS011;1923;48.154;11.536;2023-04-03T13:49:44;1.80;;;1.57;;
3815;SDS011;1923;48.154;11.536;2023-04-03T13:52:27;1.90;;;1.70;;
3815;SDS011;1923;48.154;11.536;2023-04-03T13:54:59;1.70;;;1.50;;
3815;SDS011;1923;48.154;11.536;2023-04-03T13:57:33;2.00;;;1.33;;
3815;SDS011;1923;48.154;11.536;2023-04-03T14:02:49;1.50;;;1.40;;
3815;SDS011;1923;48.154;11.536;2023-04-03T14:05:17;1.47;;;1.37;;
3815;SDS011;1923;48.154;11.536;2023-04-03T14:07:49;1.33;;;1.23;;
3815;SDS011;1923;48.154;11.536;2023-04-03T14:10:17;1.47;;;1.20;;
3815;SDS011;1923;48.154;11.536;2023-04-03T14:12:45;2.20;;;1.70;;
3815;SDS011;1923;48.154;11.536;2023-04-03T14:15:16;1.40;;;1.30;;
3815;SDS011;1923;48.154;11.536;2023-04-03T14:17:47;1.23;;;1.13;;
3815;SDS011;1923;48.154;11.536;2023-04-03T14:20:16;1.43;;;1.33;;
3815;SDS011;1923;48.154;11.536;2023-04-03T14:22:46;1.20;;;1.10;;
3815;SDS011;1923;48.154;11.536;2023-04-03T14:25:16;1.50;;;1.20;;
3815;SDS011;1923;48.154;11.536;2023-04-03T14:27:45;2.20;;;1.47;;
3815;SDS011;1923;48.154;11.536;2023-04-03T14:30:17;1.60;;;1.50;;
3815;SDS011;1923;48.154;11.536;2023-04-03T14:32:48;1.77;;;1.50;;
3815;SDS011;1923;48.154;11.536;2023-04-03T14:35:16;1.73;;;1.23;;
3815;SDS011;1923;48.154;11.536;2023-04-03T14:37:46;1.03;;;1.03;;
3815;SDS011;1923;48.154;11.536;2023-04-03T14:40:20;2.27;;;1.30;;
3815;SDS011;1923;48.154;11.536;2023-04-03T14:42:50;1.53;;;1.10;;
3815;SDS011;1923;48.154;11.536;2023-04-03T14:45:22;2.47;;;1.23;;
3815;SDS011;1923;48.154;11.536;2023-04-03T14:47:51;1.20;;;1.00;;
3815;SDS011;1923;48.154;11.536;2023-04-03T14:50:22;2.23;;;1.10;;
3815;SDS011;1923;48.154;11.536;2023-04-03T14:52:52;1.60;;;1.30;;
3815;SDS011;1923;48.154;11.536;2023-04-03T14:55:23;1.30;;;1.07;;
3815;SDS011;1923;48.154;11.536;2023-04-03T14:57:52;3.33;;;1.17;;
3815;SDS011;1923;48.154;11.536;2023-04-03T15:00:22;2.03;;;1.23;;
3815;SDS011;1923;48.154;11.536;2023-04-03T15:02:50;1.43;;;1.13;;
3815;SDS011;1923;48.154;11.536;2023-04-03T15:05:19;2.30;;;0.65;;
3815;SDS011;1923;48.154;11.536;2023-04-03T15:07:48;4.73;;;1.47;;
3815;SDS011;1923;48.154;11.536;2023-04-03T15:10:20;1.17;;;1.00;;
3815;SDS011;1923;48.154;11.536;2023-04-03T15:12:51;1.52;;;0.75;;
3815;SDS011;1923;48.154;11.536;2023-04-03T15:15:20;1.43;;;1.33;;
3815;SDS011;1923;48.154;11.536;2023-04-03T15:17:50;1.63;;;1.00;;
3815;SDS011;1923;48.154;11.536;2023-04-03T15:20:21;2.40;;;1.50;;
3815;SDS011;1923;48.154;11.536;2023-04-03T15:22:51;2.50;;;1.07;;
3815;SDS011;1923;48.154;11.536;2023-04-03T15:25:19;1.10;;;0.80;;
3815;SDS011;1923;48.154;11.536;2023-04-03T15:27:49;3.10;;;1.27;;
3815;SDS011;1923;48.154;11.536;2023-04-03T15:30:18;1.67;;;1.33;;
3815;SDS011;1923;48.154;11.536;2023-04-03T15:32:47;1.20;;;1.10;;
3815;SDS011;1923;48.154;11.536;2023-04-03T15:35:15;1.30;;;1.20;;
3815;SDS011;1923;48.154;11.536;2023-04-03T15:37:44;2.47;;;1.80;;
3815;SDS011;1923;48.154;11.536;2023-04-03T15:40:12;2.33;;;1.50;;
3815;SDS011;1923;48.154;11.536;2023-04-03T15:42:40;1.33;;;1.00;;
3815;SDS011;1923;48.154;11.536;2023-04-03T15:45:09;1.43;;;1.33;;
3815;SDS011;1923;48.154;11.536;2023-04-03T15:47:37;1.60;;;1.20;;
3815;SDS011;1923;48.154;11.536;2023-04-03T15:50:06;1.27;;;1.17;;
3815;SDS011;1923;48.154;11.536;2023-04-03T15:52:35;1.50;;;1.23;;
3815;SDS011;1923;48.154;11.536;2023-04-03T15:55:03;1.10;;;1.00;;
3815;SDS011;1923;48.154;11.536;2023-04-03T15:57:32;1.70;;;1.20;;
3815;SDS011;1923;48.154;11.536;2023-04-03T16:00:00;2.00;;;1.30;;
3815;SDS011;1923;48.154;11.536;2023-04-03T16:02:30;1.27;;;1.10;;
3815;SDS011;1923;48.154;11.536;2023-04-03T16:04:59;1.37;;;1.27;;
3815;SDS011;1923;48.154;11.536;2023-04-03T16:07:27;1.30;;;1.10;;
3815;SDS011;1923;48.154;11.536;2023-04-03T16:09:55;2.10;;;1.60;;
3815;SDS011;1923;48.154;11.536;2023-04-03T16:12:23;1.80;;;1.17;;
3815;SDS011;1923;48.154;11.536;2023-04-03T16:14:51;1.20;;;1.10;;
3815;SDS011;1923;48.154;11.536;2023-04-03T16:17:19;2.03;;;1.40;;
3815;SDS011;1923;48.154;11.536;2023-04-03T16:19:49;1.35;;;1.25;;
3815;SDS011;1923;48.154;11.536;2023-04-03T16:22:17;1.30;;;1.20;;
3815;SDS011;1923;48.154;11.536;2023-04-03T16:24:45;1.30;;;1.20;;
3815;SDS011;1923;48.154;11.536;2023-04-03T16:27:13;1.43;;;1.33;;
3815;SDS011;1923;48.154;11.536;2023-04-03T16:29:41;2.23;;;1.20;;
3815;SDS011;1923;48.154;11.536;2023-04-03T16:32:09;1.60;;;1.27;;
3815;SDS011;1923;48.154;11.536;2023-04-03T16:34:38;2.80;;;1.50;;
3815;SDS011;1923;48.154;11.536;2023-04-03T16:37:09;1.87;;;1.70;;
3815;SDS011;1923;48.154;11.536;2023-04-03T16:39:37;1.50;;;1.37;;
3815;SDS011;1923;48.154;11.536;2023-04-03T16:42:05;1.30;;;1.13;;
3815;SDS011;1923;48.154;11.536;2023-04-03T16:44:35;1.73;;;1.30;;
3815;SDS011;1923;48.154;11.536;2023-04-03T16:47:03;1.47;;;1.27;;
3815;SDS011;1923;48.154;11.536;2023-04-03T16:49:31;1.97;;;1.77;;
3815;SDS011;1923;48.154;11.536;2023-04-03T16:52:00;1.87;;;1.30;;
3815;SDS011;1923;48.154;11.536;2023-04-03T16:54:31;1.50;;;1.37;;
3815;SDS011;1923;48.154;11.536;2023-04-03T16:56:59;1.50;;;1.40;;
3815;SDS011;1923;48.154;11.536;2023-04-03T16:59:28;1.40;;;1.27;;
3815;SDS011;1923;48.154;11.536;2023-04-03T17:01:56;2.73;;;1.40;;
3815;SDS011;1923;48.154;11.536;2023-04-03T17:04:24;2.40;;;1.60;;
3815;SDS011;1923;48.154;11.536;2023-04-03T17:06:52;1.57;;;1.37;;
3815;SDS011;1923;48.154;11.536;2023-04-03T17:09:20;2.20;;;1.50;;
3815;SDS011;1923;48.154;11.536;2023-04-03T17:11:50;2.17;;;1.50;;
3815;SDS011;1923;48.154;11.536;2023-04-03T17:14:18;2.10;;;1.40;;
3815;SDS011;1923;48.154;11.536;2023-04-03T17:16:46;3.33;;;1.20;;
3815;SDS011;1923;48.154;11.536;2023-04-03T17:19:14;1.43;;;1.27;;
3815;SDS011;1923;48.154;11.536;2023-04-03T17:21:43;1.80;;;1.70;;
3815;SDS011;1923;48.154;11.536;2023-04-03T17:24:12;1.83;;;1.40;;
3815;SDS011;1923;48.154;11.536;2023-04-03T17:26:41;2.20;;;1.57;;
3815;SDS011;1923;48.154;11.536;2023-04-03T17:29:11;6.00;;;2.13;;
3815;SDS011;1923;48.154;11.536;2023-04-03T17:31:39;2.10;;;1.20;;
3815;SDS011;1923;48.154;11.536;2023-04-03T17:34:07;1.80;;;1.23;;
3815;SDS011;1923;48.154;11.536;2023-04-03T17:36:37;1.87;;;1.50;;
3815;SDS011;1923;48.154;11.536;2023-04-03T17:39:06;1.93;;;1.60;;
3815;SDS011;1923;48.154;11.536;2023-04-03T17:41:34;1.50;;;1.40;;
3815;SDS011;1923;48.154;11.536;2023-04-03T17:44:02;1.50;;;1.40;;
3815;SDS011;1923;48.154;11.536;2023-04-03T17:46:32;2.40;;;1.40;;
3815;SDS011;1923;48.154;11.536;2023-04-03T17:49:01;2.20;;;1.30;;
3815;SDS011;1923;48.154;11.536;2023-04-03T17:51:30;1.47;;;1.30;;
3815;SDS011;1923;48.154;11.536;2023-04-03T17:53:59;1.37;;;1.27;;
3815;SDS011;1923;48.154;11.536;2023-04-03T17:56:28;1.47;;;1.37;;
3815;SDS011;1923;48.154;11.536;2023-04-03T17:58:56;4.73;;;2.00;;
3815;SDS011;1923;48.154;11.536;2023-04-03T18:01:26;1.50;;;1.40;;
3815;SDS011;1923;48.154;11.536;2023-04-03T18:03:57;1.93;;;1.20;;
3815;SDS011;1923;48.154;11.536;2023-04-03T18:06:29;1.63;;;1.40;;
3815;SDS011;1923;48.154;11.536;2023-04-03T18:09:00;1.73;;;1.20;;
3815;SDS011;1923;48.154;11.536;2023-04-03T18:11:32;2.23;;;2.03;;
3815;SDS011;1923;48.154;11.536;2023-04-03T18:14:00;2.10;;;1.87;;
3815;SDS011;1923;48.154;11.536;2023-04-03T18:16:30;2.20;;;1.60;;
3815;SDS011;1923;48.154;11.536;2023-04-03T18:19:00;2.03;;;1.80;;
3815;SDS011;1923;48.154;11.536;2023-04-03T18:21:47;1.60;;;1.50;;
3815;SDS011;1923;48.154;11.536;2023-04-03T18:24:16;3.43;;;2.10;;
3815;SDS011;1923;48.154;11.536;2023-04-03T18:26:46;1.77;;;1.47;;
3815;SDS011;1923;48.154;11.536;2023-04-03T18:29:17;1.70;;;1.60;;
3815;SDS011;1923;48.154;11.536;2023-04-03T18:31:46;1.87;;;1.67;;
3815;SDS011;1923;48.154;11.536;2023-04-03T18:34:19;5.23;;;1.60;;
3815;SDS011;1923;48.154;11.536;2023-04-03T18:36:47;1.30;;;1.20;;
3815;SDS011;1923;48.154;11.536;2023-04-03T18:39:16;2.77;;;1.97;;
3815;SDS011;1923;48.154;11.536;2023-04-03T18:41:44;1.97;;;1.50;;
3815;SDS011;1923;48.154;11.536;2023-04-03T18:44:13;1.77;;;1.53;;
3815;SDS011;1923;48.154;11.536;2023-04-03T18:46:44;1.50;;;1.40;;
3815;SDS011;1923;48.154;11.536;2023-04-03T18:49:13;2.40;;;1.73;;
3815;SDS011;1923;48.154;11.536;2023-04-03T18:51:44;1.60;;;1.30;;
3815;SDS011;1923;48.154;11.536;2023-04-03T18:54:13;1.53;;;1.20;;
3815;SDS011;1923;48.154;11.536;2023-04-03T18:56:41;1.57;;;1.33;;
3815;SDS011;1923;48.154;11.536;2023-04-03T18:59:10;4.30;;;1.60;;
3815;SDS011;1923;48.154;11.536;2023-04-03T19:01:38;1.47;;;1.33;;
3815;SDS011;1923;48.154;11.536;2023-04-03T19:04:06;1.90;;;1.60;;
3815;SDS011;1923;48.154;11.536;2023-04-03T19:06:34;2.10;;;1.40;;
3815;SDS011;1923;48.154;11.536;2023-04-03T19:09:05;3.13;;;1.40;;
3815;SDS011;1923;48.154;11.536;2023-04-03T19:11:34;1.40;;;1.30;;
3815;SDS011;1923;48.154;11.536;2023-04-03T19:14:02;2.17;;;1.53;;
3815;SDS011;1923;48.154;11.536;2023-04-03T19:16:42;1.90;;;1.60;;
3815;SDS011;1923;48.154;11.536;2023-04-03T19:19:10;3.43;;;1.97;;
3815;SDS011;1923;48.154;11.536;2023-04-03T19:21:38;2.50;;;2.00;;
3815;SDS011;1923;48.154;11.536;2023-04-03T19:24:09;2.07;;;1.90;;
3815;SDS011;1923;48.154;11.536;2023-04-03T19:26:38;1.50;;;1.23;;
3815;SDS011;1923;48.154;11.536;2023-04-03T19:29:06;1.50;;;1.40;;
3815;SDS011;1923;48.154;11.536;2023-04-03T19:31:35;2.17;;;1.67;;
3815;SDS011;1923;48.154;11.536;2023-04-03T19:34:04;3.23;;;2.03;;
3815;SDS011;1923;48.154;11.536;2023-04-03T19:36:32;1.40;;;1.30;;
3815;SDS011;1923;48.154;11.536;2023-04-03T19:39:01;3.20;;;1.33;;
3815;SDS011;1923;48.154;11.536;2023-04-03T19:41:32;1.60;;;1.50;;
3815;SDS011;1923;48.154;11.536;2023-04-03T19:44:03;1.77;;;1.67;;
3815;SDS011;1923;48.154;11.536;2023-04-03T19:46:32;2.43;;;1.60;;
3815;SDS011;1923;48.154;11.536;2023-04-03T19:49:01;1.63;;;1.50;;
3815;SDS011;1923;48.154;11.536;2023-04-03T19:51:30;2.53;;;1.77;;
3815;SDS011;1923;48.154;11.536;2023-04-03T19:53:58;3.90;;;1.53;;
3815;SDS011;1923;48.154;11.536;2023-04-03T19:56:26;2.00;;;1.50;;
3815;SDS011;1923;48.154;11.536;2023-04-03T19:58:55;2.10;;;1.90;;
3815;SDS011;1923;48.154;11.536;2023-04-03T20:01:24;2.20;;;1.73;;
3815;SDS011;1923;48.154;11.536;2023-04-03T20:03:55;2.10;;;1.90;;
3815;SDS011;1923;48.154;11.536;2023-04-03T20:06:23;1.83;;;1.70;;
3815;SDS011;1923;48.154;11.536;2023-04-03T20:08:51;1.67;;;1.57;;
3815;SDS011;1923;48.154;11.536;2023-04-03T20:11:20;1.80;;;1.70;;
3815;SDS011;1923;48.154;11.536;2023-04-03T20:13:49;2.63;;;2.37;;
3815;SDS011;1923;48.154;11.536;2023-04-03T20:16:19;3.93;;;1.50;;
3815;SDS011;1923;48.154;11.536;2023-04-03T20:18:51;2.53;;;2.10;;
3815;SDS011;1923;48.154;11.536;2023-04-03T20:21:25;2.40;;;2.20;;
3815;SDS011;1923;48.154;11.536;2023-04-03T20:23:55;2.07;;;1.97;;
3815;SDS011;1923;48.154;11.536;2023-04-03T20:26:23;2.73;;;2.03;;
3815;SDS011;1923;48.154;11.536;2023-04-03T20:28:53;1.70;;;1.60;;
3815;SDS011;1923;48.154;11.536;2023-04-03T20:31:24;2.83;;;2.40;;
3815;SDS011;1923;48.154;11.536;2023-04-03T20:33:53;2.23;;;2.03;;
3815;SDS011;1923;48.154;11.536;2023-04-03T20:36:22;2.00;;;1.80;;
3815;SDS011;1923;48.154;11.536;2023-04-03T20:38:51;2.93;;;1.90;;
3815;SDS011;1923;48.154;11.536;2023-04-03T20:41:19;1.80;;;1.60;;
3815;SDS011;1923;48.154;11.536;2023-04-03T20:43:49;1.90;;;1.70;;
3815;SDS011;1923;48.154;11.536;2023-04-03T20:46:17;3.03;;;2.00;;
3815;SDS011;1923;48.154;11.536;2023-04-03T20:48:47;3.70;;;2.00;;
3815;SDS011;1923;48.154;11.536;2023-04-03T20:51:15;2.57;;;1.80;;
3815;SDS011;1923;48.154;11.536;2023-04-03T20:53:45;2.17;;;1.97;;
3815;SDS011;1923;48.154;11.536;2023-04-03T20:56:14;1.73;;;1.60;;
3815;SDS011;1923;48.154;11.536;2023-04-03T20:58:42;2.10;;;1.87;;
3815;SDS011;1923;48.154;11.536;2023-04-03T21:01:11;2.20;;;2.00;;
3815;SDS011;1923;48.154;11.536;2023-04-03T21:03:41;1.93;;;1.43;;
3815;SDS011;1923;48.154;11.536;2023-04-03T21:21:24;2.33;;;2.13;;
3815;SDS011;1923;48.154;11.536;2023-04-03T21:23:53;2.50;;;1.83;;
3815;SDS011;1923;48.154;11.536;2023-04-03T21:26:21;2.03;;;1.93;;
3815;SDS011;1923;48.154;11.536;2023-04-03T21:28:52;2.27;;;2.07;;
3815;SDS011;1923;48.154;11.536;2023-04-03T21:31:20;2.00;;;1.70;;
3815;SDS011;1923;48.154;11.536;2023-04-03T21:33:50;3.13;;;2.23;;
3815;SDS011;1923;48.154;11.536;2023-04-03T21:36:20;2.03;;;1.93;;
3815;SDS011;1923;48.154;11.536;2023-04-03T21:38:48;1.70;;;1.60;;
3815;SDS011;1923;48.154;11.536;2023-04-03T21:41:16;2.53;;;1.90;;
3815;SDS011;1923;48.154;11.536;2023-04-03T21:43:44;4.57;;;2.17;;
3815;SDS011;1923;48.154;11.536;2023-04-03T21:46:13;1.90;;;1.80;;
3815;SDS011;1923;48.154;11.536;2023-04-03T21:48:41;1.83;;;1.73;;
3815;SDS011;1923;48.154;11.536;2023-04-03T21:51:13;3.20;;;1.83;;
3815;SDS011;1923;48.154;11.536;2023-04-03T21:53:42;2.13;;;1.93;;
3815;SDS011;1923;48.154;11.536;2023-04-03T21:56:11;2.00;;;1.90;;
3815;SDS011;1923;48.154;11.536;2023-04-03T21:58:40;3.00;;;1.80;;
3815;SDS011;1923;48.154;11.536;2023-04-03T22:01:08;2.27;;;1.93;;
3815;SDS011;1923;48.154;11.536;2023-04-03T22:03:37;2.70;;;2.27;;
3815;SDS011;1923;48.154;11.536;2023-04-03T22:06:06;2.70;;;1.70;;
3815;SDS011;1923;48.154;11.536;2023-04-03T22:08:36;2.70;;;1.70;;
3815;SDS011;1923;48.154;11.536;2023-04-03T22:11:04;3.53;;;2.30;;
3815;SDS011;1923;48.154;11.536;2023-04-03T22:13:34;2.90;;;2.40;;
3815;SDS011;1923;48.154;11.536;2023-04-03T22:16:03;4.03;;;2.03;;
3815;SDS011;1923;48.154;11.536;2023-04-03T22:18:31;2.17;;;1.87;;
3815;SDS011;1923;48.154;11.536;2023-04-03T22:21:00;2.60;;;1.87;;
3815;SDS011;1923;48.154;11.536;2023-04-03T22:23:28;2.17;;;2.07;;
3815;SDS011;1923;48.154;11.536;2023-04-03T22:25:58;1.93;;;1.53;;
3815;SDS011;1923;48.154;11.536;2023-04-03T22:28:28;2.93;;;1.80;;
3815;SDS011;1923;48.154;11.536;2023-04-03T22:30:59;2.20;;;2.00;;
3815;SDS011;1923;48.154;11.536;2023-04-03T22:33:27;2.67;;;2.47;;
3815;SDS011;1923;48.154;11.536;2023-04-03T22:35:56;2.00;;;1.87;;
3815;SDS011;1923;48.154;11.536;2023-04-03T22:38:24;1.40;;;1.30;;
3815;SDS011;1923;48.154;11.536;2023-04-03T22:40:55;2.23;;;2.00;;
3815;SDS011;1923;48.154;11.536;2023-04-03T22:43:26;4.23;;;2.20;;
3815;SDS011;1923;48.154;11.536;2023-04-03T22:45:55;2.10;;;1.90;;
3815;SDS011;1923;48.154;11.536;2023-04-03T22:48:23;2.10;;;1.90;;
3815;SDS011;1923;48.154;11.536;2023-04-03T22:50:52;4.00;;;2.40;;
3815;SDS011;1923;48.154;11.536;2023-04-03T22:53:20;4.20;;;2.13;;
3815;SDS011;1923;48.154;11.536;2023-04-03T22:55:55;2.70;;;2.37;;
3815;SDS011;1923;48.154;11.536;2023-04-03T22:58:23;4.63;;;2.37;;
3815;SDS011;1923;48.154;11.536;2023-04-03T23:00:54;2.67;;;2.43;;
3815;SDS011;1923;48.154;11.536;2023-04-03T23:03:29;4.07;;;3.27;;
3815;SDS011;1923;48.154;11.536;2023-04-03T23:05:57;2.63;;;2.43;;
3815;SDS011;1923;48.154;11.536;2023-04-03T23:08:26;1.73;;;1.63;;
3815;SDS011;1923;48.154;11.536;2023-04-03T23:10:55;3.27;;;2.70;;
3815;SDS011;1923;48.154;11.536;2023-04-03T23:13:24;2.27;;;2.07;;
3815;SDS011;1923;48.154;11.536;2023-04-03T23:15:55;1.90;;;1.80;;
3815;SDS011;1923;48.154;11.536;2023-04-03T23:18:24;2.20;;;2.10;;
3815;SDS011;1923;48.154;11.536;2023-04-03T23:20:54;1.83;;;1.73;;
3815;SDS011;1923;48.154;11.536;2023-04-03T23:23:22;2.20;;;2.03;;
3815;SDS011;1923;48.154;11.536;2023-04-03T23:25:51;2.13;;;1.93;;
3815;SDS011;1923;48.154;11.536;2023-04-03T23:28:19;2.60;;;2.40;;
3815;SDS011;1923;48.154;11.536;2023-04-03T23:30:48;2.20;;;1.80;;
3815;SDS011;1923;48.154;11.536;2023-04-03T23:33:18;2.40;;;2.00;;
3815;SDS011;1923;48.154;11.536;2023-04-03T23:35:46;1.73;;;1.63;;
3815;SDS011;1923;48.154;11.536;2023-04-03T23:38:14;1.87;;;1.77;;
3815;SDS011;1923;48.154;11.536;2023-04-03T23:40:43;1.90;;;1.80;;
3815;SDS011;1923;48.154;11.536;2023-04-03T23:43:12;2.13;;;1.93;;
3815;SDS011;1923;48.154;11.536;2023-04-03T23:45:40;3.43;;;2.37;;
3815;SDS011;1923;48.154;11.536;2023-04-03T23:48:10;2.33;;;2.10;;
3815;SDS011;1923;48.154;11.536;2023-04-03T23:50:39;2.57;;;2.37;;
3815;SDS011;1923;48.154;11.536;2023-04-03T23:53:08;3.50;;;2.17;;
3815;SDS011;1923;48.154;11.536;2023-04-03T23:55:38;2.60;;;1.87;;
3815;SDS011;1923;48.154;11.536;2023-04-03T23:58:06;1.90;;;1.70;;
